createdAt,value
2023-12-13T00:01:35.999Z,11.77
2023-12-13T00:04:03.933Z,11.68
2023-12-13T00:06:33.286Z,12.15
2023-12-13T00:09:02.356Z,12.57
2023-12-13T00:11:30.147Z,12.77
2023-12-13T00:13:57.961Z,12.16
2023-12-13T00:16:25.786Z,12.54
2023-12-13T00:18:53.824Z,11.92
2023-12-13T00:21:21.696Z,11.78
2023-12-13T00:23:50.882Z,11.86
2023-12-13T00:26:19.756Z,11.65
2023-12-13T00:28:48.063Z,11.89
2023-12-13T00:31:15.878Z,11.37
2023-12-13T00:33:43.957Z,12.08
2023-12-13T00:36:12.162Z,11.97
2023-12-13T00:38:40.036Z,11.68
2023-12-13T00:41:09.269Z,11.73
2023-12-13T00:43:37.221Z,12.12
2023-12-13T00:46:06.727Z,11.69
2023-12-13T00:48:37.431Z,11.73
2023-12-13T00:51:05.768Z,11.74
2023-12-13T00:53:33.588Z,11.54
2023-12-13T00:56:01.345Z,10.54
2023-12-13T00:58:30.592Z,10.58
2023-12-13T01:00:58.670Z,11.42
2023-12-13T01:03:26.610Z,11.19
2023-12-13T01:05:54.433Z,11.08
2023-12-13T01:08:22.288Z,10.15
2023-12-13T01:10:50.193Z,10.58
2023-12-13T01:13:18.075Z,11.15
2023-12-13T01:15:47.183Z,10.14
2023-12-13T01:18:15.124Z,10.66
2023-12-13T01:20:43.006Z,11.01
2023-12-13T01:23:10.905Z,10.27
2023-12-13T01:25:38.724Z,11.41
2023-12-13T01:28:06.544Z,10.94
2023-12-13T01:30:34.457Z,10.28
2023-12-13T01:33:03.657Z,10.91
2023-12-13T01:35:31.587Z,10.76
2023-12-13T01:37:59.397Z,11.10
2023-12-13T01:40:28.384Z,10.66
2023-12-13T01:42:56.178Z,10.82
2023-12-13T01:45:24.000Z,10.55
2023-12-13T01:47:51.845Z,11.24
2023-12-13T01:50:21.133Z,11.31
2023-12-13T01:52:49.012Z,11.07
2023-12-13T01:55:17.375Z,11.16
2023-12-13T01:57:45.242Z,10.12
2023-12-13T02:00:14.269Z,10.52
2023-12-13T02:02:42.733Z,9.88
2023-12-13T02:05:12.061Z,10.01
2023-12-13T02:07:41.777Z,9.88
2023-12-13T02:10:10.089Z,10.15
2023-12-13T02:12:39.394Z,10.05
2023-12-13T02:15:08.509Z,10.47
2023-12-13T02:17:36.868Z,10.43
2023-12-13T02:20:05.824Z,10.25
2023-12-13T02:22:34.914Z,10.23
2023-12-13T02:25:05.956Z,10.23
2023-12-13T02:27:33.977Z,9.99
2023-12-13T02:30:01.983Z,10.35
2023-12-13T02:32:29.758Z,11.00
2023-12-13T02:34:57.843Z,11.94
2023-12-13T02:37:25.827Z,12.17
2023-12-13T02:39:54.995Z,11.85
2023-12-13T02:42:22.713Z,11.61
2023-12-13T02:44:50.475Z,11.60
2023-12-13T02:47:18.204Z,10.81
2023-12-13T02:49:45.960Z,10.15
2023-12-13T02:52:13.963Z,9.67
2023-12-13T02:54:41.849Z,9.90
2023-12-13T02:57:10.984Z,9.90
2023-12-13T02:59:38.785Z,9.81
2023-12-13T03:02:06.594Z,10.15
2023-12-13T03:04:34.605Z,9.77
2023-12-13T03:07:02.407Z,9.92
2023-12-13T03:09:30.335Z,10.02
2023-12-13T03:11:58.185Z,9.90
2023-12-13T03:14:27.331Z,9.37
2023-12-13T03:16:55.189Z,9.47
2023-12-13T03:19:23.194Z,10.34
2023-12-13T03:21:51.024Z,10.31
2023-12-13T03:24:18.732Z,10.00
2023-12-13T03:26:46.583Z,10.69
2023-12-13T03:29:14.295Z,10.12
2023-12-13T03:31:43.471Z,10.37
2023-12-13T03:34:11.289Z,10.56
2023-12-13T03:36:39.128Z,10.38
2023-12-13T03:39:08.549Z,10.51
2023-12-13T03:41:36.665Z,11.02
2023-12-13T03:44:04.588Z,10.97
2023-12-13T03:46:32.476Z,10.43
2023-12-13T03:49:01.952Z,10.77
2023-12-13T03:51:29.832Z,10.08
2023-12-13T03:53:57.647Z,10.83
2023-12-13T03:56:25.451Z,10.59
2023-12-13T03:58:53.209Z,10.22
2023-12-13T04:01:21.149Z,10.31
2023-12-13T04:03:49.016Z,10.97
2023-12-13T04:06:18.484Z,11.55
2023-12-13T04:08:46.333Z,11.02
2023-12-13T04:11:14.366Z,11.08
2023-12-13T04:13:42.156Z,11.29
2023-12-13T04:16:10.615Z,11.08
2023-12-13T04:18:38.838Z,12.08
2023-12-13T04:21:07.705Z,12.18
2023-12-13T04:23:37.306Z,12.83
2023-12-13T04:26:05.411Z,12.91
2023-12-13T04:28:33.184Z,13.15
2023-12-13T04:31:01.080Z,12.55
2023-12-13T04:33:28.850Z,12.92
2023-12-13T04:35:59.849Z,12.69
2023-12-13T04:38:27.727Z,12.46
2023-12-13T04:40:56.960Z,12.41
2023-12-13T04:43:24.827Z,11.87
2023-12-13T04:45:52.824Z,12.22
2023-12-13T04:48:20.674Z,12.41
2023-12-13T04:50:48.476Z,12.85
2023-12-13T04:53:16.277Z,13.20
2023-12-13T04:55:44.110Z,13.42
2023-12-13T04:58:13.418Z,13.72
2023-12-13T05:00:41.218Z,13.47
2023-12-13T05:03:09.141Z,12.14
2023-12-13T05:05:37.070Z,12.36
2023-12-13T05:08:05.570Z,12.52
2023-12-13T05:10:33.452Z,11.88
2023-12-13T05:13:01.199Z,12.01
2023-12-13T05:15:30.371Z,12.21
2023-12-13T05:17:58.216Z,12.20
2023-12-13T05:20:26.069Z,12.07
2023-12-13T05:22:53.947Z,11.69
2023-12-13T05:25:21.818Z,10.25
2023-12-13T05:27:49.536Z,10.41
2023-12-13T05:30:19.329Z,10.19
2023-12-13T05:32:48.681Z,10.49
2023-12-13T05:35:16.613Z,11.95
2023-12-13T05:37:44.434Z,12.33
2023-12-13T05:40:13.901Z,12.89
2023-12-13T05:42:42.268Z,13.31
2023-12-13T05:45:10.772Z,13.24
2023-12-13T05:47:38.921Z,13.51
2023-12-13T05:50:09.567Z,12.13
2023-12-13T05:52:38.047Z,11.62
2023-12-13T05:55:06.981Z,11.39
2023-12-13T05:57:35.142Z,10.70
2023-12-13T06:00:03.165Z,10.85
2023-12-13T06:02:54.647Z,11.09
2023-12-13T06:05:26.016Z,11.99
2023-12-13T06:07:54.066Z,12.39
2023-12-13T06:10:21.996Z,12.52
2023-12-13T06:12:52.204Z,12.75
2023-12-13T06:15:20.421Z,12.66
2023-12-13T06:17:48.259Z,12.89
2023-12-13T06:20:16.436Z,12.78
2023-12-13T06:22:45.633Z,12.80
2023-12-13T06:25:13.680Z,12.89
2023-12-13T06:27:41.508Z,13.25
2023-12-13T06:30:11.743Z,13.26
2023-12-13T06:32:40.442Z,13.08
2023-12-13T06:35:09.019Z,13.08
2023-12-13T06:37:37.058Z,13.12
2023-12-13T06:40:07.823Z,12.81
2023-12-13T06:42:35.609Z,12.59
2023-12-13T06:45:04.069Z,12.53
2023-12-13T06:47:31.966Z,12.66
2023-12-13T06:49:59.891Z,11.86
2023-12-13T06:52:27.708Z,11.37
2023-12-13T06:54:55.470Z,11.30
2023-12-13T06:57:24.593Z,11.31
2023-12-13T06:59:52.378Z,11.21
2023-12-13T07:02:20.335Z,11.39
2023-12-13T07:04:48.361Z,11.64
2023-12-13T07:07:16.936Z,11.99
2023-12-13T07:09:45.594Z,11.68
2023-12-13T07:12:13.881Z,11.23
2023-12-13T07:14:42.943Z,11.48
2023-12-13T07:17:10.835Z,11.23
2023-12-13T07:19:39.616Z,11.49
2023-12-13T07:22:07.489Z,10.72
2023-12-13T07:24:35.386Z,11.23
2023-12-13T07:27:03.939Z,11.94
2023-12-13T07:29:33.575Z,12.24
2023-12-13T07:32:02.865Z,11.69
2023-12-13T07:34:30.784Z,10.55
2023-12-13T07:36:58.658Z,10.22
2023-12-13T07:39:27.434Z,10.54
2023-12-13T07:41:56.713Z,11.32
2023-12-13T07:44:25.701Z,10.88
2023-12-13T07:46:53.679Z,11.01
2023-12-13T07:49:23.146Z,11.81
2023-12-13T07:51:51.035Z,12.52
2023-12-13T07:54:19.332Z,11.99
2023-12-13T07:56:47.382Z,12.24
2023-12-13T07:59:15.135Z,13.02
2023-12-13T08:01:43.025Z,13.22
2023-12-13T08:04:10.897Z,12.82
2023-12-13T08:06:40.068Z,13.27
2023-12-13T08:09:10.484Z,13.00
2023-12-13T08:11:38.723Z,12.50
2023-12-13T08:14:09.256Z,12.24
2023-12-13T08:16:37.364Z,11.70
2023-12-13T08:19:05.375Z,11.32
2023-12-13T08:21:33.393Z,12.55
2023-12-13T08:24:03.320Z,12.54
2023-12-13T08:26:31.142Z,13.28
2023-12-13T08:29:05.726Z,13.67
2023-12-13T08:31:35.478Z,13.71
2023-12-13T08:34:03.544Z,14.18
2023-12-13T08:36:31.419Z,14.43
2023-12-13T08:38:59.620Z,14.47
2023-12-13T08:41:29.183Z,13.69
2023-12-13T08:43:57.298Z,13.49
2023-12-13T08:46:25.150Z,13.98
2023-12-13T08:48:53.072Z,13.33
2023-12-13T08:51:20.897Z,13.68
2023-12-13T08:53:50.144Z,13.62
2023-12-13T08:56:18.035Z,13.70
2023-12-13T08:58:47.241Z,13.36
2023-12-13T09:01:15.919Z,13.20
2023-12-13T09:03:44.550Z,12.77
2023-12-13T09:06:15.541Z,12.25
2023-12-13T09:08:43.474Z,11.77
2023-12-13T09:11:11.457Z,10.58
2023-12-13T09:13:39.543Z,10.49
2023-12-13T09:16:09.160Z,10.69
2023-12-13T09:18:37.395Z,11.37
2023-12-13T09:21:05.739Z,11.68
2023-12-13T09:23:37.427Z,12.32
2023-12-13T09:26:08.712Z,12.01
2023-12-13T09:28:37.117Z,12.61
2023-12-13T09:31:06.847Z,13.17
2023-12-13T09:33:36.240Z,12.89
2023-12-13T09:36:04.624Z,11.97
2023-12-13T09:38:32.556Z,11.88
2023-12-13T09:41:00.675Z,11.46
2023-12-13T09:43:28.524Z,11.89
2023-12-13T09:45:57.707Z,12.06
2023-12-13T09:48:26.897Z,12.93
2023-12-13T09:51:00.524Z,13.03
2023-12-13T09:53:30.526Z,11.96
2023-12-13T09:55:59.776Z,12.70
2023-12-13T09:58:27.770Z,12.31
2023-12-13T10:00:55.667Z,12.95
2023-12-13T10:03:23.530Z,13.21
2023-12-13T10:05:57.811Z,13.38
2023-12-13T10:08:27.012Z,13.23
2023-12-13T10:10:54.901Z,13.39
2023-12-13T10:13:22.898Z,13.78
2023-12-13T10:15:50.784Z,13.25
2023-12-13T10:18:19.040Z,13.33
2023-12-13T10:20:46.931Z,13.17
2023-12-13T10:23:15.180Z,13.19
2023-12-13T10:25:45.126Z,13.29
2023-12-13T10:28:14.147Z,13.88
2023-12-13T10:30:42.564Z,13.95
2023-12-13T10:33:11.072Z,13.87
2023-12-13T10:35:38.961Z,13.89
2023-12-13T10:38:08.938Z,14.12
2023-12-13T10:40:36.849Z,14.95
2023-12-13T10:43:09.892Z,14.59
2023-12-13T10:45:40.248Z,14.72
2023-12-13T10:48:10.303Z,14.29
2023-12-13T10:50:38.385Z,14.13
2023-12-13T10:53:08.248Z,14.90
2023-12-13T10:55:37.074Z,13.49
2023-12-13T10:58:06.512Z,12.80
2023-12-13T11:00:35.448Z,13.51
2023-12-13T11:03:10.200Z,14.86
2023-12-13T11:05:38.982Z,13.29
2023-12-13T11:08:15.997Z,13.39
2023-12-13T11:10:45.084Z,13.02
2023-12-13T11:13:24.287Z,12.81
2023-12-13T11:15:52.193Z,12.60
2023-12-13T11:18:20.631Z,13.11
2023-12-13T11:20:49.921Z,13.24
2023-12-13T11:23:17.670Z,13.94
2023-12-13T11:25:50.462Z,14.22
2023-12-13T11:28:24.672Z,13.22
2023-12-13T11:30:52.802Z,14.39
2023-12-13T11:33:23.669Z,14.46
2023-12-13T11:35:52.051Z,15.02
2023-12-13T11:38:20.225Z,15.90
2023-12-13T11:40:48.362Z,15.43
2023-12-13T11:43:16.236Z,15.83
2023-12-13T11:45:51.861Z,15.81
2023-12-13T11:48:19.933Z,14.64
2023-12-13T11:50:48.176Z,13.35
2023-12-13T11:53:16.272Z,12.90
2023-12-13T11:55:44.467Z,13.92
2023-12-13T11:58:12.354Z,12.93
2023-12-13T12:00:43.847Z,12.76
2023-12-13T12:03:13.319Z,12.59
2023-12-13T12:05:43.612Z,11.91
2023-12-13T12:08:13.121Z,12.79
2023-12-13T12:10:43.455Z,13.32
2023-12-13T12:13:14.717Z,13.02
2023-12-13T12:15:45.297Z,12.85
2023-12-13T12:18:14.999Z,12.97
2023-12-13T12:20:43.319Z,13.53
2023-12-13T12:23:12.430Z,13.27
2023-12-13T12:25:43.374Z,14.34
2023-12-13T12:28:12.810Z,14.63
2023-12-13T12:30:41.450Z,14.51
2023-12-13T12:33:09.690Z,14.61
2023-12-13T12:35:39.006Z,14.31
2023-12-13T12:38:09.360Z,13.61
2023-12-13T12:40:37.349Z,14.13
2023-12-13T12:43:05.302Z,14.60
2023-12-13T12:45:33.090Z,13.88
2023-12-13T12:48:01.061Z,14.51
2023-12-13T12:50:28.881Z,15.18
2023-12-13T12:52:58.271Z,15.78
2023-12-13T12:55:26.131Z,15.89
2023-12-13T12:57:53.938Z,15.93
2023-12-13T13:00:21.796Z,15.41
2023-12-13T13:02:49.842Z,14.99
2023-12-13T13:05:17.818Z,13.32
2023-12-13T13:07:46.009Z,12.02
2023-12-13T13:10:15.276Z,11.96
2023-12-13T13:12:43.808Z,11.89
2023-12-13T13:15:12.313Z,11.76
2023-12-13T13:17:40.835Z,11.48
2023-12-13T13:20:14.013Z,11.53
2023-12-13T13:22:42.423Z,11.41
2023-12-13T13:25:11.260Z,10.45
2023-12-13T13:27:41.412Z,9.89
2023-12-13T13:30:10.655Z,9.57
2023-12-13T13:32:40.184Z,10.38
2023-12-13T13:35:09.655Z,10.98
2023-12-13T13:37:38.085Z,11.82
2023-12-13T13:40:07.404Z,12.45
2023-12-13T13:42:35.438Z,10.89
2023-12-13T13:45:06.079Z,10.98
2023-12-13T13:47:34.345Z,10.68
2023-12-13T13:50:04.473Z,10.06
2023-12-13T13:52:32.647Z,10.17
2023-12-13T13:55:00.619Z,10.88
2023-12-13T13:57:28.387Z,10.26
2023-12-13T13:59:57.827Z,10.03
2023-12-13T14:02:33.536Z,11.18
2023-12-13T14:05:03.090Z,10.56
2023-12-13T14:07:33.160Z,10.30
2023-12-13T14:10:01.460Z,9.98
2023-12-13T14:12:30.557Z,9.78
2023-12-13T14:14:58.510Z,9.78
2023-12-13T14:17:29.716Z,9.94
2023-12-13T14:19:57.994Z,10.76
2023-12-13T14:22:26.488Z,11.93
2023-12-13T14:24:54.407Z,12.47
2023-12-13T14:27:22.226Z,12.54
2023-12-13T14:29:50.037Z,13.20
2023-12-13T14:32:17.924Z,12.35
2023-12-13T14:34:47.194Z,12.65
2023-12-13T14:37:15.377Z,12.98
2023-12-13T14:39:43.575Z,13.07
2023-12-13T14:42:13.002Z,13.12
2023-12-13T14:44:40.925Z,12.11
2023-12-13T14:47:08.902Z,11.46
2023-12-13T14:49:36.717Z,12.45
2023-12-13T14:52:07.323Z,12.78
2023-12-13T14:54:35.639Z,12.67
2023-12-13T14:57:04.362Z,12.39
2023-12-13T14:59:32.160Z,12.88
2023-12-13T15:02:00.094Z,13.21
2023-12-13T15:04:28.012Z,13.50
2023-12-13T15:06:55.956Z,13.71
2023-12-13T15:09:27.018Z,13.98
2023-12-13T15:11:54.800Z,13.72
2023-12-13T15:14:22.577Z,13.26
2023-12-13T15:16:50.620Z,13.51
2023-12-13T15:19:18.535Z,13.62
2023-12-13T15:21:46.429Z,13.93
2023-12-13T15:24:14.358Z,13.60
2023-12-13T15:26:43.728Z,13.60
2023-12-13T15:29:11.627Z,13.52
2023-12-13T15:31:41.330Z,11.72
2023-12-13T15:34:11.646Z,12.19
2023-12-13T15:36:44.615Z,12.60
2023-12-13T15:39:13.826Z,12.79
2023-12-13T15:41:43.428Z,12.35
2023-12-13T15:44:14.013Z,12.84
2023-12-13T15:46:41.882Z,13.05
2023-12-13T15:49:10.421Z,13.18
2023-12-13T15:51:38.217Z,12.22
2023-12-13T15:54:06.245Z,12.18
2023-12-13T15:56:34.069Z,12.40
2023-12-13T15:59:03.282Z,12.89
2023-12-13T16:01:32.258Z,13.09
2023-12-13T16:04:00.104Z,13.48
2023-12-13T16:06:28.126Z,13.61
2023-12-13T16:08:56.091Z,12.96
2023-12-13T16:11:24.030Z,12.99
2023-12-13T16:13:52.950Z,13.06
2023-12-13T16:16:22.289Z,13.05
2023-12-13T16:18:50.440Z,12.57
2023-12-13T16:21:19.717Z,12.63
2023-12-13T16:23:47.779Z,12.67
2023-12-13T16:26:15.759Z,12.45
2023-12-13T16:28:43.610Z,12.49
2023-12-13T16:31:11.595Z,12.81
2023-12-13T16:33:41.229Z,12.41
2023-12-13T16:36:09.175Z,13.00
2023-12-13T16:38:36.992Z,12.91
2023-12-13T16:41:05.322Z,12.69
2023-12-13T16:43:33.274Z,12.53
2023-12-13T16:46:02.878Z,12.59
2023-12-13T16:48:30.765Z,12.92
2023-12-13T16:51:00.039Z,12.92
2023-12-13T16:53:27.822Z,13.07
2023-12-13T16:55:56.254Z,13.43
2023-12-13T16:58:24.452Z,13.46
2023-12-13T17:00:52.295Z,13.25
2023-12-13T17:03:20.285Z,12.85
2023-12-13T17:05:48.086Z,12.89
2023-12-13T17:08:17.325Z,13.13
2023-12-13T17:10:45.540Z,13.00
2023-12-13T17:13:13.522Z,12.80
2023-12-13T17:15:41.536Z,13.37
2023-12-13T17:18:09.782Z,13.42
2023-12-13T17:20:37.688Z,13.57
2023-12-13T17:23:05.539Z,13.64
2023-12-13T17:25:34.817Z,13.39
2023-12-13T17:28:02.594Z,13.45
2023-12-13T17:30:30.495Z,12.91
2023-12-13T17:32:59.218Z,12.73
2023-12-13T17:35:27.114Z,12.52
2023-12-13T17:37:56.331Z,12.07
2023-12-13T17:40:24.169Z,12.33
2023-12-13T17:42:53.469Z,12.16
2023-12-13T17:45:21.388Z,12.26
2023-12-13T17:47:52.285Z,12.05
2023-12-13T17:50:20.858Z,11.97
2023-12-13T17:52:48.753Z,12.25
2023-12-13T17:55:17.529Z,12.30
2023-12-13T17:57:45.434Z,12.33
2023-12-13T18:00:15.376Z,12.33
2023-12-13T18:02:43.263Z,12.57
2023-12-13T18:05:11.244Z,12.23
2023-12-13T18:07:39.189Z,12.39
2023-12-13T18:10:07.648Z,12.17
2023-12-13T18:12:35.895Z,12.12
2023-12-13T18:15:03.978Z,12.30
2023-12-13T18:17:32.737Z,12.46
2023-12-13T18:20:00.910Z,12.43
2023-12-13T18:22:28.939Z,12.69
2023-12-13T18:24:56.772Z,12.84
2023-12-13T18:27:24.548Z,12.36
2023-12-13T18:29:52.577Z,12.39
2023-12-13T18:32:20.497Z,12.40
2023-12-13T18:34:49.647Z,12.70
2023-12-13T18:37:17.642Z,12.98
2023-12-13T18:39:45.992Z,13.13
2023-12-13T18:42:13.831Z,13.27
2023-12-13T18:44:41.612Z,13.26
2023-12-13T18:47:09.591Z,13.57
2023-12-13T18:49:37.421Z,13.28
2023-12-13T18:52:07.939Z,13.27
2023-12-13T18:54:35.946Z,13.05
2023-12-13T18:57:03.821Z,12.80
2023-12-13T18:59:32.766Z,12.60
2023-12-13T19:02:00.808Z,12.97
2023-12-13T19:04:28.716Z,12.15
2023-12-13T19:06:56.691Z,12.52
2023-12-13T19:09:26.598Z,12.38
2023-12-13T19:11:54.529Z,12.42
2023-12-13T19:14:22.354Z,12.24
2023-12-13T19:16:50.899Z,11.90
2023-12-13T19:19:22.239Z,12.03
2023-12-13T19:21:51.187Z,12.72
2023-12-13T19:24:19.025Z,12.63
2023-12-13T19:26:48.125Z,11.84
2023-12-13T19:29:16.725Z,11.60
2023-12-13T19:31:45.794Z,11.66
2023-12-13T19:34:22.707Z,11.80
2023-12-13T19:36:55.729Z,11.83
2023-12-13T19:39:23.644Z,11.55
2023-12-13T19:41:52.963Z,11.56
2023-12-13T19:44:20.778Z,11.02
2023-12-13T19:46:48.663Z,11.56
2023-12-13T19:49:17.001Z,11.40
2023-12-13T19:51:44.915Z,11.52
2023-12-13T19:54:13.532Z,10.55
2023-12-13T19:56:41.690Z,10.05
2023-12-13T19:59:10.991Z,9.53
2023-12-13T20:01:39.364Z,9.78
2023-12-13T20:04:08.726Z,9.96
2023-12-13T20:06:37.009Z,9.64
2023-12-13T20:09:05.429Z,10.51
2023-12-13T20:11:33.202Z,10.09
2023-12-13T20:14:04.521Z,9.83
2023-12-13T20:16:38.014Z,9.19
2023-12-13T20:19:05.938Z,8.82
2023-12-13T20:21:33.837Z,9.03
2023-12-13T20:24:01.716Z,8.76
2023-12-13T20:26:29.776Z,8.77
2023-12-13T20:28:57.748Z,8.72
2023-12-13T20:31:25.719Z,8.88
2023-12-13T20:33:55.009Z,9.01
2023-12-13T20:36:23.405Z,8.98
2023-12-13T20:38:51.444Z,9.17
2023-12-13T20:41:19.345Z,8.84
2023-12-13T20:43:47.253Z,8.93
2023-12-13T20:46:15.163Z,8.99
2023-12-13T20:48:46.060Z,9.39
2023-12-13T20:51:15.428Z,9.37
2023-12-13T20:53:44.320Z,9.58
2023-12-13T20:56:13.113Z,9.33
2023-12-13T20:58:41.661Z,9.35
2023-12-13T21:01:11.967Z,9.33
2023-12-13T21:03:41.141Z,9.45
2023-12-13T21:06:09.935Z,9.27
2023-12-13T21:08:39.217Z,9.97
2023-12-13T21:11:07.607Z,10.47
2023-12-13T21:13:35.508Z,10.01
2023-12-13T21:16:03.435Z,10.49
2023-12-13T21:18:32.953Z,9.92
2023-12-13T21:21:00.886Z,9.56
2023-12-13T21:23:28.739Z,9.49
2023-12-13T21:25:57.959Z,9.86
2023-12-13T21:28:25.831Z,9.95
2023-12-13T21:30:53.702Z,10.66
2023-12-13T21:33:22.695Z,10.72
2023-12-13T21:35:50.772Z,9.71
2023-12-13T21:38:18.809Z,9.52
2023-12-13T21:40:46.803Z,9.39
2023-12-13T21:43:16.057Z,9.05
2023-12-13T21:45:44.036Z,9.02
2023-12-13T21:48:11.957Z,8.82
2023-12-13T21:50:39.872Z,8.82
2023-12-13T21:53:07.671Z,9.19
2023-12-13T21:55:36.287Z,9.51
2023-12-13T21:58:04.244Z,9.50
2023-12-13T22:00:33.448Z,9.41
2023-12-13T22:03:01.310Z,9.23
2023-12-13T22:05:29.199Z,9.24
2023-12-13T22:07:56.985Z,9.36
2023-12-13T22:10:27.907Z,9.81
2023-12-13T22:12:55.805Z,9.48
2023-12-13T22:15:23.619Z,9.71
2023-12-13T22:17:56.013Z,9.65
2023-12-13T22:20:24.486Z,9.90
2023-12-13T22:22:53.892Z,9.21
2023-12-13T22:25:21.982Z,9.07
2023-12-13T22:27:49.851Z,8.85
2023-12-13T22:30:17.739Z,9.13
2023-12-13T22:32:45.762Z,8.96
2023-12-13T22:35:15.133Z,8.78
2023-12-13T22:37:42.989Z,8.91
2023-12-13T22:40:11.673Z,8.97
2023-12-13T22:42:39.481Z,9.17
2023-12-13T22:45:07.918Z,8.98
2023-12-13T22:47:35.799Z,8.99
2023-12-13T22:50:03.810Z,9.01
2023-12-13T22:52:33.236Z,9.05
2023-12-13T22:55:01.167Z,8.94
2023-12-13T22:57:28.925Z,9.29
2023-12-13T22:59:56.729Z,8.75
2023-12-13T23:02:24.524Z,8.64
2023-12-13T23:04:52.460Z,8.63
2023-12-13T23:07:20.293Z,8.63
2023-12-13T23:09:49.481Z,8.85
2023-12-13T23:12:17.288Z,8.93
2023-12-13T23:14:45.098Z,8.69
2023-12-13T23:17:13.033Z,8.84
2023-12-13T23:19:40.790Z,8.78
2023-12-13T23:22:08.675Z,8.56
2023-12-13T23:24:36.447Z,8.82
2023-12-13T23:27:06.189Z,8.89
2023-12-13T23:29:33.948Z,9.28
2023-12-13T23:32:01.774Z,9.15
2023-12-13T23:34:29.874Z,9.07
2023-12-13T23:36:57.740Z,8.96
2023-12-13T23:39:25.497Z,8.75
2023-12-13T23:41:53.316Z,8.98
2023-12-13T23:44:22.587Z,8.71
2023-12-13T23:46:50.354Z,8.78
2023-12-13T23:49:18.245Z,8.82
2023-12-13T23:51:46.142Z,8.79
2023-12-13T23:54:14.037Z,8.50
2023-12-13T23:56:42.025Z,8.64
2023-12-13T23:59:10.048Z,8.89
